Enter the Airport ICAO Code

Search by Airport or City

Current Weather

SUMU | Carrasco Gral. Cesáreo L. Berisso International Airport

Montevideo, Uruguay

Last Update 58 Minutes Ago

Completely Cloudy Sky

Temperature of 24 ºC

Light to Moderate Winds from East

Temperature

24 ºC

Dew Point Temperature

17 ºC

Relative Humidity

65.1 %

Wind Direction

East (110º, Without Significant Variations)

Wind Velocity

13 km/h (07 kt)

Gusts

None

Visibility

Greater than 10 Kilometers

Sea Level Pressure

1005 hPa (Hectopascals)

Layers of Clouds

5% to 30% of Sky Covered from 1219 mts (4000 ft) Above Ground Level.

30% to 60% of Sky Covered from 2438 mts (8000 ft) Above Ground Level.

90% to 100% of Sky Covered from 6096 mts (20000 ft) Above Ground Level.

METAR SUMU 022100Z 11007KT 9999 FEW040 SCT080 OVC200 24/17 Q1005NOSIG

Weather Forecast

SUMU | Carrasco Gral. Cesáreo L. Berisso International Airport

Montevideo, Uruguay

Forecast valid for the next 20 Hours

From now on it is expected:

Completely Cloudy Sky

Moderate Winds from SouthEast

From now on it is expected 10 hours with intermittent periods of:

Thunderstorm with Rain

Moderate to Strong Winds from Variable Directions with Gusts

Maximum Temperature

25 ºC in 20 Hours

Minimum Temperature

18 ºC in 11 Hours

TAF SUMU 021730Z 0218/0318 15012KT 9999 SCT033 OVC200 TX25/0318Z TN18/0309Z TEMPO 0222/0308 VRB18G28KT 5000 TSRA BKN030 FEW040CB BKN070